createdAt,value
2023-02-14T00:01:16.196Z,5.50
2023-02-14T00:03:43.528Z,5.50
2023-02-14T00:06:13.926Z,5.60
2023-02-14T00:08:44.432Z,5.60
2023-02-14T00:11:13.032Z,5.60
2023-02-14T00:14:00.269Z,5.70
2023-02-14T00:16:28.017Z,5.60
2023-02-14T00:19:04.029Z,5.70
2023-02-14T00:21:38.740Z,5.70
2023-02-14T00:24:26.548Z,5.70
2023-02-14T00:26:53.974Z,5.80
2023-02-14T00:29:32.469Z,5.80
2023-02-14T00:32:02.319Z,5.80
2023-02-14T00:34:29.888Z,5.70
2023-02-14T00:36:57.117Z,5.70
2023-02-14T00:39:24.659Z,5.80
2023-02-14T00:41:51.833Z,5.80
2023-02-14T00:44:20.060Z,5.70
2023-02-14T00:46:47.272Z,5.60
2023-02-14T00:49:14.612Z,5.50
2023-02-14T00:51:41.869Z,5.50
2023-02-14T00:54:09.128Z,5.50
2023-02-14T00:56:36.401Z,5.60
2023-02-14T00:59:03.725Z,5.60
2023-02-14T01:01:31.095Z,5.50
2023-02-14T01:03:59.018Z,5.50
2023-02-14T01:06:26.358Z,5.50
2023-02-14T01:08:53.644Z,5.50
2023-02-14T01:11:22.739Z,5.50
2023-02-14T01:13:51.610Z,5.40
2023-02-14T01:16:21.246Z,5.40
2023-02-14T01:18:49.484Z,5.30
2023-02-14T01:21:28.985Z,5.30
2023-02-14T01:23:59.317Z,5.30
2023-02-14T01:26:27.759Z,5.30
2023-02-14T01:28:55.985Z,5.30
2023-02-14T01:31:26.993Z,5.30
2023-02-14T01:33:57.412Z,5.30
2023-02-14T01:36:30.292Z,5.30
2023-02-14T01:39:00.906Z,5.30
2023-02-14T01:41:30.963Z,5.30
2023-02-14T01:44:01.323Z,5.40
2023-02-14T01:46:31.407Z,5.30
2023-02-14T01:49:18.399Z,5.30
2023-02-14T01:52:00.316Z,5.40
2023-02-14T01:54:31.204Z,5.40
2023-02-14T01:57:02.682Z,5.40
2023-02-14T01:59:34.749Z,5.50
2023-02-14T02:02:02.429Z,5.40
2023-02-14T02:04:33.828Z,5.40
2023-02-14T02:07:07.545Z,5.40
2023-02-14T02:09:37.046Z,5.50
2023-02-14T02:12:05.067Z,5.40
2023-02-14T02:14:33.187Z,5.50
2023-02-14T02:17:12.673Z,5.50
2023-02-14T02:20:01.680Z,5.50
2023-02-14T02:22:51.335Z,5.50
2023-02-14T02:25:40.347Z,5.50
2023-02-14T02:28:10.482Z,5.50
2023-02-14T02:30:41.011Z,5.50
2023-02-14T02:33:24.036Z,5.40
2023-02-14T02:36:00.832Z,5.40
2023-02-14T02:38:45.856Z,5.40
2023-02-14T02:41:25.749Z,5.40
2023-02-14T02:44:02.300Z,5.40
2023-02-14T02:46:47.529Z,5.40
2023-02-14T02:49:40.309Z,5.40
2023-02-14T02:52:50.505Z,5.40
2023-02-14T02:55:28.135Z,5.40
2023-02-14T02:57:56.963Z,5.30
2023-02-14T03:00:25.077Z,5.40
2023-02-14T03:03:15.160Z,5.40
2023-02-14T03:05:43.782Z,5.40
2023-02-14T03:08:10.926Z,5.40
2023-02-14T03:10:39.946Z,5.40
2023-02-14T03:13:35.168Z,5.30
2023-02-14T03:16:30.573Z,5.40
2023-02-14T03:19:34.537Z,5.50
2023-02-14T03:22:14.643Z,5.40
2023-02-14T03:24:42.740Z,5.50
2023-02-14T03:27:27.850Z,5.50
2023-02-14T03:30:06.233Z,5.50
2023-02-14T03:32:51.816Z,5.50
2023-02-14T03:35:41.220Z,5.50
2023-02-14T03:38:28.233Z,5.50
2023-02-14T03:41:05.673Z,5.50
2023-02-14T03:43:45.912Z,5.50
2023-02-14T03:46:25.458Z,5.40
2023-02-14T03:48:55.999Z,5.40
2023-02-14T03:51:24.788Z,5.40
2023-02-14T03:53:56.750Z,5.50
2023-02-14T03:56:30.172Z,5.40
2023-02-14T03:59:01.596Z,5.40
2023-02-14T04:01:34.985Z,5.50
2023-02-14T04:04:04.590Z,5.50
2023-02-14T04:06:31.859Z,5.60
2023-02-14T04:08:59.157Z,5.60
2023-02-14T04:11:26.618Z,5.70
2023-02-14T04:13:53.876Z,5.70
2023-02-14T04:16:21.068Z,5.70
2023-02-14T04:19:06.713Z,5.60
2023-02-14T04:21:33.953Z,5.60
2023-02-14T04:24:01.118Z,5.60
2023-02-14T04:26:28.345Z,5.50
2023-02-14T04:28:55.642Z,5.50
2023-02-14T04:31:22.970Z,5.60
2023-02-14T04:33:51.368Z,5.60
2023-02-14T04:36:18.519Z,5.60
2023-02-14T04:38:45.737Z,5.60
2023-02-14T04:41:12.903Z,5.70
2023-02-14T04:43:40.414Z,5.70
2023-02-14T04:46:07.595Z,5.70
2023-02-14T04:48:34.817Z,5.60
2023-02-14T04:51:02.270Z,5.60
2023-02-14T04:53:29.632Z,5.50
2023-02-14T04:55:56.927Z,5.50
2023-02-14T04:58:24.111Z,5.50
2023-02-14T05:00:51.361Z,5.50
2023-02-14T05:03:18.770Z,5.50
2023-02-14T05:05:46.735Z,5.60
2023-02-14T05:08:14.991Z,5.50
2023-02-14T05:10:42.256Z,5.40
2023-02-14T05:13:09.623Z,5.50
2023-02-14T05:15:38.658Z,5.50
2023-02-14T05:18:06.199Z,5.40
2023-02-14T05:20:33.432Z,5.50
2023-02-14T05:23:03.383Z,5.40
2023-02-14T05:25:31.433Z,5.40
2023-02-14T05:27:58.861Z,5.40
2023-02-14T05:30:28.180Z,5.40
2023-02-14T05:32:55.407Z,5.40
2023-02-14T05:35:22.879Z,5.40
2023-02-14T05:37:50.760Z,5.40
2023-02-14T05:40:18.151Z,5.40
2023-02-14T05:42:45.351Z,5.30
2023-02-14T05:45:13.157Z,5.30
2023-02-14T05:47:40.469Z,5.40
2023-02-14T05:50:08.356Z,5.40
2023-02-14T05:52:35.708Z,5.40
2023-02-14T05:55:03.425Z,5.50
2023-02-14T05:57:31.293Z,5.50
2023-02-14T05:59:58.516Z,5.50
2023-02-14T06:02:25.957Z,5.50
2023-02-14T06:04:53.351Z,5.50
2023-02-14T06:07:20.599Z,5.50
2023-02-14T06:09:48.148Z,5.50
2023-02-14T06:12:15.829Z,5.50
2023-02-14T06:14:43.201Z,5.60
2023-02-14T06:17:10.871Z,5.60
2023-02-14T06:19:38.176Z,5.50
2023-02-14T06:22:05.701Z,5.50
2023-02-14T06:24:32.893Z,5.60
2023-02-14T06:27:00.571Z,5.50
2023-02-14T06:29:27.989Z,5.60
2023-02-14T06:31:55.358Z,5.60
2023-02-14T06:34:22.558Z,5.50
2023-02-14T06:36:49.889Z,5.50
2023-02-14T06:39:17.136Z,5.60
2023-02-14T06:41:44.350Z,5.60
2023-02-14T06:44:11.550Z,5.50
2023-02-14T06:46:39.308Z,5.50
2023-02-14T06:49:06.611Z,5.50
2023-02-14T06:51:33.871Z,5.50
2023-02-14T06:54:01.106Z,5.50
2023-02-14T06:56:28.789Z,5.60
2023-02-14T06:58:56.053Z,5.50
2023-02-14T07:01:23.341Z,5.50
2023-02-14T07:03:50.783Z,5.50
2023-02-14T07:06:18.015Z,5.50
2023-02-14T07:08:45.676Z,5.50
2023-02-14T07:11:12.893Z,5.50
2023-02-14T07:13:40.049Z,5.50
2023-02-14T07:16:07.295Z,5.50
2023-02-14T07:18:34.484Z,5.60
2023-02-14T07:21:02.068Z,5.60
2023-02-14T07:23:29.597Z,5.50
2023-02-14T07:25:56.934Z,5.50
2023-02-14T07:28:24.239Z,5.50
2023-02-14T07:30:51.496Z,5.50
2023-02-14T07:33:21.341Z,5.50
2023-02-14T07:35:48.697Z,5.50
2023-02-14T07:38:15.919Z,5.60
2023-02-14T07:40:43.124Z,5.70
2023-02-14T07:43:10.515Z,5.60
2023-02-14T07:45:37.819Z,5.60
2023-02-14T07:48:05.074Z,5.60
2023-02-14T07:50:32.286Z,5.60
2023-02-14T07:52:59.549Z,5.70
2023-02-14T07:55:26.727Z,5.70
2023-02-14T07:57:54.177Z,5.70
2023-02-14T08:00:21.808Z,5.80
2023-02-14T08:02:49.558Z,5.80
2023-02-14T08:05:17.487Z,5.90
2023-02-14T08:07:46.408Z,6.00
2023-02-14T08:10:14.218Z,6.00
2023-02-14T08:12:59.403Z,6.00
2023-02-14T08:15:54.783Z,6.00
2023-02-14T08:18:27.261Z,6.20
2023-02-14T08:20:54.558Z,6.10
2023-02-14T08:23:22.261Z,6.00
2023-02-14T08:25:50.995Z,6.10
2023-02-14T08:28:20.871Z,6.10
2023-02-14T08:30:48.191Z,6.00
2023-02-14T08:33:15.487Z,6.10
2023-02-14T08:35:42.933Z,6.10
2023-02-14T08:38:10.682Z,6.10
2023-02-14T08:40:38.234Z,6.20
2023-02-14T08:43:07.038Z,6.20
2023-02-14T08:45:34.413Z,6.30
2023-02-14T08:48:03.294Z,6.30
2023-02-14T08:50:30.982Z,6.20
2023-02-14T08:52:58.426Z,6.40
2023-02-14T08:55:26.160Z,6.40
2023-02-14T08:57:58.131Z,6.40
2023-02-14T09:00:25.604Z,6.40
2023-02-14T09:02:53.803Z,6.30
2023-02-14T09:05:23.402Z,6.30
2023-02-14T09:07:50.934Z,6.40
2023-02-14T09:10:18.811Z,6.40
2023-02-14T09:12:46.073Z,6.50
2023-02-14T09:15:13.966Z,6.60
2023-02-14T09:17:41.391Z,6.60
2023-02-14T09:20:10.892Z,6.60
2023-02-14T09:22:38.328Z,6.70
2023-02-14T09:25:06.025Z,6.70
2023-02-14T09:27:33.514Z,6.80
2023-02-14T09:30:00.871Z,6.80
2023-02-14T09:32:29.367Z,6.90
2023-02-14T09:34:56.649Z,7.00
2023-02-14T09:37:24.241Z,6.80
2023-02-14T09:39:51.521Z,6.80
2023-02-14T09:42:41.647Z,6.70
2023-02-14T09:45:12.812Z,6.80
2023-02-14T09:47:46.515Z,6.80
2023-02-14T09:50:20.304Z,6.80
2023-02-14T09:52:50.825Z,6.80
2023-02-14T09:55:18.965Z,6.80
2023-02-14T09:57:59.821Z,6.90
2023-02-14T10:00:38.600Z,6.80
2023-02-14T10:03:18.850Z,6.80
2023-02-14T10:05:59.451Z,6.80
2023-02-14T10:09:00.851Z,6.80
2023-02-14T10:11:28.752Z,6.90
2023-02-14T10:14:04.119Z,6.90
2023-02-14T10:16:43.126Z,6.90
2023-02-14T10:19:36.901Z,7.00
2023-02-14T10:22:21.441Z,6.90
2023-02-14T10:24:53.130Z,7.00
2023-02-14T10:27:43.957Z,7.00
2023-02-14T10:30:17.791Z,7.10
2023-02-14T10:32:45.071Z,7.20
2023-02-14T10:35:43.144Z,7.10
2023-02-14T10:38:54.214Z,7.10
2023-02-14T10:41:49.362Z,6.90
2023-02-14T10:44:34.858Z,7.00
2023-02-14T10:47:09.181Z,7.00
2023-02-14T10:49:57.692Z,7.10
2023-02-14T10:52:34.511Z,7.10
2023-02-14T10:55:30.071Z,7.20
2023-02-14T10:58:01.692Z,7.30
2023-02-14T11:00:34.498Z,7.30
2023-02-14T11:03:07.320Z,7.40
2023-02-14T11:05:46.541Z,7.50
2023-02-14T11:08:18.273Z,7.50
2023-02-14T11:10:46.218Z,7.60
2023-02-14T11:13:35.943Z,7.60
2023-02-14T11:16:10.046Z,7.50
2023-02-14T11:18:40.041Z,7.50
2023-02-14T11:21:14.690Z,7.50
2023-02-14T11:23:50.177Z,7.50
2023-02-14T11:26:35.158Z,7.50
2023-02-14T11:29:12.246Z,7.50
2023-02-14T11:31:41.033Z,7.60
2023-02-14T11:34:30.514Z,7.60
2023-02-14T11:36:58.059Z,7.60
2023-02-14T11:39:30.149Z,7.50
2023-02-14T11:42:01.170Z,7.60
2023-02-14T11:44:30.606Z,7.50
2023-02-14T11:47:15.837Z,7.50
2023-02-14T11:53:08.421Z,7.50
2023-02-14T11:55:36.958Z,7.50
2023-02-14T11:58:06.999Z,7.60
2023-02-14T12:00:35.234Z,7.60
2023-02-14T12:03:06.736Z,7.60
2023-02-14T12:05:36.772Z,7.70
2023-02-14T12:08:08.113Z,7.60
2023-02-14T12:10:37.031Z,7.50
2023-02-14T12:13:10.095Z,7.50
2023-02-14T12:15:42.882Z,7.50
2023-02-14T12:18:45.116Z,7.50
2023-02-14T12:21:30.647Z,7.50
2023-02-14T12:24:27.996Z,7.50
2023-02-14T12:27:10.281Z,7.40
2023-02-14T12:29:52.394Z,7.50
2023-02-14T12:32:30.268Z,7.60
2023-02-14T12:35:18.868Z,7.70
2023-02-14T12:38:02.741Z,7.80
2023-02-14T12:40:53.190Z,7.70
2023-02-14T12:43:50.982Z,7.70
2023-02-14T12:46:36.986Z,7.70
2023-02-14T12:49:26.890Z,7.70
2023-02-14T12:52:15.223Z,7.50
2023-02-14T12:54:52.862Z,7.40
2023-02-14T12:57:49.728Z,7.40
2023-02-14T13:00:35.307Z,7.50
2023-02-14T13:03:10.105Z,7.50
2023-02-14T13:05:56.828Z,7.60
2023-02-14T13:08:38.924Z,7.70
2023-02-14T13:11:43.994Z,7.70
2023-02-14T13:14:19.998Z,7.80
2023-02-14T13:16:54.347Z,7.80
2023-02-14T13:19:33.120Z,7.60
2023-02-14T13:22:01.565Z,7.60
2023-02-14T13:24:42.629Z,7.60
2023-02-14T13:27:16.911Z,7.70
2023-02-14T13:29:49.120Z,7.70
2023-02-14T13:32:24.554Z,7.80
2023-02-14T13:34:52.050Z,7.90
2023-02-14T13:37:23.067Z,7.90
2023-02-14T13:39:58.784Z,7.80
2023-02-14T13:42:50.244Z,7.90
2023-02-14T13:45:37.770Z,8.00
2023-02-14T13:48:10.330Z,8.00
2023-02-14T13:50:49.105Z,8.00
2023-02-14T13:53:33.013Z,7.90
2023-02-14T13:56:01.222Z,8.00
2023-02-14T13:58:32.210Z,7.80
2023-02-14T14:00:59.653Z,7.80
2023-02-14T14:03:29.995Z,7.80
2023-02-14T14:06:10.900Z,7.80
2023-02-14T14:08:40.883Z,7.90
2023-02-14T14:11:34.286Z,7.90
2023-02-14T14:14:21.367Z,8.00
2023-02-14T14:16:59.635Z,7.90
2023-02-14T14:19:26.774Z,8.00
2023-02-14T14:22:04.476Z,8.00
2023-02-14T14:24:33.759Z,8.00
2023-02-14T14:27:16.185Z,7.90
2023-02-14T14:29:58.676Z,7.90
2023-02-14T14:32:37.963Z,7.80
2023-02-14T14:35:08.400Z,7.70
2023-02-14T14:37:45.376Z,7.70
2023-02-14T14:40:37.799Z,7.60
2023-02-14T14:43:13.987Z,7.70
2023-02-14T14:45:41.967Z,7.70
2023-02-14T14:48:14.856Z,7.60
2023-02-14T14:50:45.893Z,7.60
2023-02-14T14:53:48.928Z,7.50
2023-02-14T14:56:28.830Z,7.50
2023-02-14T14:58:56.486Z,7.60
2023-02-14T15:01:37.549Z,7.60
2023-02-14T15:04:30.175Z,7.60
2023-02-14T15:07:16.702Z,7.70
2023-02-14T15:09:44.745Z,7.70
2023-02-14T15:12:39.028Z,7.60
2023-02-14T15:15:12.240Z,7.60
2023-02-14T15:17:40.854Z,7.60
2023-02-14T15:20:30.070Z,7.60
2023-02-14T15:22:57.660Z,7.60
2023-02-14T15:25:38.368Z,7.70
2023-02-14T15:28:05.878Z,7.60
2023-02-14T15:30:37.253Z,7.60
2023-02-14T15:33:07.307Z,7.70
2023-02-14T15:35:42.325Z,7.60
2023-02-14T15:38:12.166Z,7.60
2023-02-14T15:40:40.554Z,7.70
2023-02-14T15:43:22.016Z,7.70
2023-02-14T15:45:53.302Z,7.70
2023-02-14T15:48:33.367Z,7.60
2023-02-14T15:51:02.826Z,7.60
2023-02-14T15:53:42.484Z,7.60
2023-02-14T15:56:19.441Z,7.50
2023-02-14T15:58:47.518Z,7.60
2023-02-14T16:01:14.904Z,7.50
2023-02-14T16:03:51.662Z,7.50
2023-02-14T16:06:44.576Z,7.50
2023-02-14T16:09:27.144Z,7.50
2023-02-14T16:11:54.564Z,7.40
2023-02-14T16:14:36.778Z,7.40
2023-02-14T16:17:14.584Z,7.40
2023-02-14T16:19:45.989Z,7.50
2023-02-14T16:22:32.212Z,7.50
2023-02-14T16:24:59.791Z,7.50
2023-02-14T16:27:27.299Z,7.50
2023-02-14T16:29:54.611Z,7.50
2023-02-14T16:32:23.948Z,7.40
2023-02-14T16:34:51.544Z,7.40
2023-02-14T16:37:24.934Z,7.40
2023-02-14T16:39:54.797Z,7.40
2023-02-14T16:42:22.101Z,7.40
2023-02-14T16:44:50.364Z,7.40
2023-02-14T16:47:19.827Z,7.30
2023-02-14T16:49:47.690Z,7.30
2023-02-14T16:52:23.857Z,7.30
2023-02-14T16:54:51.647Z,7.30
2023-02-14T16:57:33.047Z,7.30
2023-02-14T17:00:00.615Z,7.30
2023-02-14T17:02:30.501Z,7.30
2023-02-14T17:04:57.900Z,7.30
2023-02-14T17:07:25.350Z,7.30
2023-02-14T17:10:01.699Z,7.30
2023-02-14T17:12:35.278Z,7.20
2023-02-14T17:15:08.480Z,7.10
2023-02-14T17:17:37.363Z,7.20
2023-02-14T17:20:08.184Z,7.10
2023-02-14T17:22:37.368Z,7.10
2023-02-14T17:25:05.783Z,7.10
2023-02-14T17:27:33.219Z,7.20
2023-02-14T17:30:00.686Z,7.10
2023-02-14T17:32:28.152Z,7.10
2023-02-14T17:34:56.476Z,7.00
2023-02-14T17:37:23.991Z,7.00
2023-02-14T17:39:53.307Z,6.80
2023-02-14T17:42:20.710Z,6.70
2023-02-14T17:44:48.068Z,6.70
2023-02-14T17:47:18.327Z,6.60
2023-02-14T17:49:48.888Z,6.70
2023-02-14T17:52:16.583Z,6.80
2023-02-14T17:54:44.313Z,6.70
2023-02-14T17:57:12.746Z,6.60
2023-02-14T17:59:40.045Z,6.50
2023-02-14T18:02:07.389Z,6.50
2023-02-14T18:04:36.492Z,6.50
2023-02-14T18:07:04.865Z,6.50
2023-02-14T18:09:32.428Z,6.60
2023-02-14T18:11:59.790Z,6.50
2023-02-14T18:14:27.360Z,6.50
2023-02-14T18:16:54.816Z,6.50
2023-02-14T18:19:22.224Z,6.50
2023-02-14T18:21:50.059Z,6.50
2023-02-14T18:24:17.226Z,6.50
2023-02-14T18:26:44.726Z,6.40
2023-02-14T18:29:12.851Z,6.30
2023-02-14T18:31:43.168Z,6.30
2023-02-14T18:34:11.484Z,6.20
2023-02-14T18:36:41.877Z,6.30
2023-02-14T18:39:10.630Z,6.30
2023-02-14T18:41:38.199Z,6.30
2023-02-14T18:44:05.857Z,6.30
2023-02-14T18:46:35.641Z,6.20
2023-02-14T18:49:06.088Z,6.10
2023-02-14T18:51:37.345Z,6.20
2023-02-14T18:54:04.701Z,6.20
2023-02-14T18:56:35.743Z,6.30
2023-02-14T18:59:09.045Z,6.20
2023-02-14T19:01:39.733Z,6.30
2023-02-14T19:04:09.121Z,6.30
2023-02-14T19:06:37.004Z,6.30
2023-02-14T19:09:09.341Z,6.30
2023-02-14T19:11:37.328Z,6.20
2023-02-14T19:14:10.044Z,6.10
2023-02-14T19:16:54.581Z,6.10
2023-02-14T19:19:23.366Z,6.10
2023-02-14T19:21:50.812Z,6.10
2023-02-14T19:24:19.895Z,6.10
2023-02-14T19:26:47.349Z,6.00
2023-02-14T19:29:16.855Z,6.10
2023-02-14T19:31:48.433Z,6.20
2023-02-14T19:34:20.207Z,6.20
2023-02-14T19:36:49.091Z,6.20
2023-02-14T19:39:16.729Z,6.20
2023-02-14T19:41:43.956Z,6.20
2023-02-14T19:44:13.956Z,6.30
2023-02-14T19:46:42.776Z,6.30
2023-02-14T19:49:16.030Z,6.30
2023-02-14T19:51:43.640Z,6.20
2023-02-14T19:54:11.001Z,6.20
2023-02-14T19:56:40.780Z,6.20
2023-02-14T19:59:09.323Z,6.20
2023-02-14T20:01:39.696Z,6.20
2023-02-14T20:04:13.725Z,6.20
2023-02-14T20:06:42.039Z,6.10
2023-02-14T20:09:09.686Z,6.10
2023-02-14T20:11:42.554Z,6.20
2023-02-14T20:14:09.871Z,6.30
2023-02-14T20:16:37.508Z,6.30
2023-02-14T20:19:13.395Z,6.30
2023-02-14T20:21:42.070Z,6.30
2023-02-14T20:24:11.125Z,6.30
2023-02-14T20:26:39.555Z,6.20
2023-02-14T20:29:09.826Z,6.10
2023-02-14T20:31:40.764Z,6.00
2023-02-14T20:34:08.208Z,5.90
2023-02-14T20:36:35.520Z,5.90
2023-02-14T20:39:05.581Z,5.90
2023-02-14T20:41:35.909Z,5.90
2023-02-14T20:44:16.937Z,6.00
2023-02-14T20:46:44.253Z,6.00
2023-02-14T20:49:12.458Z,5.90
2023-02-14T20:51:39.938Z,5.90
2023-02-14T20:54:07.121Z,5.90
2023-02-14T20:56:34.794Z,5.70
2023-02-14T20:59:02.182Z,5.70
2023-02-14T21:01:29.975Z,5.70
2023-02-14T21:03:57.351Z,5.60
2023-02-14T21:06:30.511Z,5.50
2023-02-14T21:08:58.074Z,5.60
2023-02-14T21:11:26.901Z,5.60
2023-02-14T21:13:57.107Z,5.50
2023-02-14T21:16:26.014Z,5.50
2023-02-14T21:19:00.860Z,5.50
2023-02-14T21:21:36.762Z,5.50
2023-02-14T21:24:09.683Z,5.40
2023-02-14T21:26:37.919Z,5.50
2023-02-14T21:29:06.033Z,5.50
2023-02-14T21:31:34.098Z,5.50
2023-02-14T21:34:02.680Z,5.50
2023-02-14T21:36:32.364Z,5.40
2023-02-14T21:39:00.205Z,5.50
2023-02-14T21:41:31.271Z,5.40
2023-02-14T21:44:00.258Z,5.50
2023-02-14T21:46:32.752Z,5.50
2023-02-14T21:49:20.212Z,5.60
2023-02-14T21:51:47.924Z,5.60
2023-02-14T21:54:15.776Z,5.60
2023-02-14T21:56:43.329Z,5.60
2023-02-14T21:59:10.908Z,5.60
2023-02-14T22:01:41.211Z,5.60
2023-02-14T22:04:11.675Z,5.60
2023-02-14T22:06:41.861Z,5.60
2023-02-14T22:09:12.345Z,5.60
2023-02-14T22:11:39.581Z,5.60
2023-02-14T22:14:06.830Z,5.60
2023-02-14T22:16:36.768Z,5.60
2023-02-14T22:19:05.759Z,5.60
2023-02-14T22:21:33.618Z,5.60
2023-02-14T22:24:01.603Z,5.70
2023-02-14T22:26:35.432Z,5.70
2023-02-14T22:29:03.268Z,5.70
2023-02-14T22:31:35.745Z,5.70
2023-02-14T22:34:05.446Z,5.80
2023-02-14T22:36:32.963Z,5.80
2023-02-14T22:39:00.284Z,5.80
2023-02-14T22:41:27.730Z,5.70
2023-02-14T22:43:55.385Z,5.70
2023-02-14T22:46:25.214Z,5.70
2023-02-14T22:48:53.375Z,5.70
2023-02-14T22:51:32.721Z,5.60
2023-02-14T22:54:08.078Z,5.60
2023-02-14T22:56:41.129Z,5.60
2023-02-14T22:59:13.980Z,5.60
2023-02-14T23:01:41.207Z,5.60
2023-02-14T23:04:08.476Z,5.60
2023-02-14T23:06:37.158Z,5.60
2023-02-14T23:09:07.148Z,5.70
2023-02-14T23:11:36.986Z,5.70
2023-02-14T23:14:23.592Z,5.90
2023-02-14T23:17:06.731Z,5.90
2023-02-14T23:19:54.527Z,5.80
2023-02-14T23:22:25.642Z,5.80
2023-02-14T23:24:55.129Z,5.80
2023-02-14T23:27:26.197Z,5.70
2023-02-14T23:29:53.654Z,5.70
2023-02-14T23:32:21.004Z,5.70
2023-02-14T23:34:48.385Z,5.60
2023-02-14T23:37:15.878Z,5.60
2023-02-14T23:39:43.656Z,5.60
2023-02-14T23:42:13.919Z,5.60
2023-02-14T23:44:43.383Z,5.80
2023-02-14T23:47:11.814Z,5.80
2023-02-14T23:49:40.627Z,5.70
2023-02-14T23:52:09.791Z,5.80
2023-02-14T23:54:38.046Z,5.80
2023-02-14T23:57:06.256Z,5.70
2023-02-14T23:59:33.599Z,5.80
